createdAt,value
2018-05-23T00:00:20.344Z,75.77
2018-05-23T00:01:29.489Z,75.96
2018-05-23T00:02:38.457Z,75.57
2018-05-23T00:03:47.317Z,76.64
2018-05-23T00:04:56.188Z,76.44
2018-05-23T00:06:05.337Z,75.77
2018-05-23T00:07:14.202Z,75.96
2018-05-23T00:08:23.068Z,76.54
2018-05-23T00:09:32.774Z,76.73
2018-05-23T00:10:41.632Z,77.31
2018-05-23T00:11:50.500Z,76.4
2018-05-23T00:12:59.361Z,76.5
2018-05-23T00:14:08.324Z,76.59
2018-05-23T00:15:17.190Z,76.69
2018-05-23T00:16:26.608Z,76.5
2018-05-23T00:17:35.746Z,76.59
2018-05-23T00:18:44.605Z,76.4
2018-05-23T00:19:53.617Z,76.98
2018-05-23T00:21:02.485Z,77.36
2018-05-23T00:22:11.351Z,77.65
2018-05-23T00:23:20.494Z,77.65
2018-05-23T00:24:29.353Z,77.36
2018-05-23T00:25:38.266Z,78.61
2018-05-23T00:26:47.180Z,78.23
2018-05-23T00:27:56.045Z,77.56
2018-05-23T00:29:04.909Z,78.32
2018-05-23T00:30:13.771Z,77.94
2018-05-23T00:31:22.681Z,78.7
2018-05-23T00:32:31.549Z,78.32
2018-05-23T00:33:40.409Z,78.7
2018-05-23T00:34:49.269Z,78.9
2018-05-23T00:35:58.134Z,78.99
2018-05-23T00:37:06.994Z,78.8
2018-05-23T00:38:15.855Z,78.7
2018-05-23T00:39:24.716Z,78.9
2018-05-23T00:40:33.580Z,78.99
2018-05-23T00:41:42.443Z,78.8
2018-05-23T00:42:51.656Z,79.28
2018-05-23T00:44:00.520Z,79.34
2018-05-23T00:45:09.384Z,79.38
2018-05-23T00:46:18.245Z,78.99
2018-05-23T00:47:27.387Z,80.01
2018-05-23T00:48:36.526Z,78.96
2018-05-23T00:49:45.389Z,80.01
2018-05-23T00:50:54.527Z,79.63
2018-05-23T00:52:03.389Z,80.2
2018-05-23T00:53:12.252Z,79.53
2018-05-23T00:54:21.391Z,79.82
2018-05-23T00:55:30.253Z,79.91
2018-05-23T00:56:39.115Z,79.82
2018-05-23T00:57:47.979Z,81.45
2018-05-23T00:58:57.117Z,80.4
2018-05-23T01:00:06.360Z,80.2
2018-05-23T01:01:15.223Z,80.4
2018-05-23T01:02:24.085Z,80.3
2018-05-23T01:03:33.231Z,80.58
2018-05-23T01:04:42.455Z,80.58
2018-05-23T01:05:51.659Z,80.58
2018-05-23T01:07:00.521Z,80.87
2018-05-23T01:08:09.665Z,80.58
2018-05-23T01:09:18.527Z,81.26
2018-05-23T01:10:27.667Z,80.49
2018-05-23T01:11:36.885Z,82.21
2018-05-23T01:12:45.747Z,80.93
2018-05-23T01:13:54.607Z,80.97
2018-05-23T01:15:03.470Z,81.51
2018-05-23T01:16:12.333Z,82.27
2018-05-23T01:17:21.347Z,82.08
2018-05-23T01:18:30.203Z,81.02
2018-05-23T01:19:39.068Z,81.89
2018-05-23T01:20:48.210Z,81.6
2018-05-23T01:21:57.072Z,80.83
2018-05-23T01:23:06.083Z,82.08
2018-05-23T01:24:14.944Z,82.08
2018-05-23T01:25:23.803Z,81.6
2018-05-23T01:26:32.961Z,81.51
2018-05-23T01:27:41.828Z,81.6
2018-05-23T01:28:51.018Z,81.98
2018-05-23T01:30:00.162Z,83.04
2018-05-23T01:31:09.024Z,82.08
2018-05-23T01:32:17.885Z,82.56
2018-05-23T01:33:26.747Z,82.46
2018-05-23T01:34:35.758Z,82.56
2018-05-23T01:35:44.619Z,82.65
2018-05-23T01:36:53.757Z,82.85
2018-05-23T01:38:02.619Z,83.33
2018-05-23T01:39:11.484Z,82.37
2018-05-23T01:40:20.838Z,83
2018-05-23T01:41:29.703Z,82.32
2018-05-23T01:42:39.409Z,82.71
2018-05-23T01:43:48.272Z,81.85
2018-05-23T01:44:57.136Z,82.14
2018-05-23T01:46:06.425Z,81.79
2018-05-23T01:47:15.286Z,82.32
2018-05-23T01:48:24.145Z,82.85
2018-05-23T01:49:33.285Z,82.04
2018-05-23T01:50:42.702Z,82.71
2018-05-23T01:51:51.722Z,82.23
2018-05-23T01:53:00.861Z,82.71
2018-05-23T01:54:09.722Z,82.52
2018-05-23T01:55:18.873Z,83.58
2018-05-23T01:56:28.014Z,82.71
2018-05-23T01:57:37.224Z,82.71
2018-05-23T01:58:46.086Z,83
2018-05-23T01:59:54.949Z,84.05
2018-05-23T02:01:03.809Z,83.67
2018-05-23T02:02:12.670Z,83.86
2018-05-23T02:03:21.536Z,83.38
2018-05-23T02:04:30.403Z,83.76
2018-05-23T02:05:39.542Z,83.58
2018-05-23T02:06:48.402Z,83.76
2018-05-23T02:07:57.266Z,83.76
2018-05-23T02:09:06.129Z,84.15
2018-05-23T02:10:15.270Z,84.25
2018-05-23T02:11:24.142Z,83.76
2018-05-23T02:12:33.291Z,84.34
2018-05-23T02:13:42.150Z,84.44
2018-05-23T02:14:51.011Z,84.72
2018-05-23T02:15:59.872Z,84.05
2018-05-23T02:17:09.013Z,84.63
2018-05-23T02:18:17.874Z,85.11
2018-05-23T02:19:26.737Z,84.97
2018-05-23T02:20:35.650Z,85.16
2018-05-23T02:21:44.513Z,84.88
2018-05-23T02:22:53.375Z,84.68
2018-05-23T02:24:02.517Z,84.3
2018-05-23T02:25:11.389Z,84.3
2018-05-23T02:26:20.477Z,84.68
2018-05-23T02:27:29.345Z,84.58
2018-05-23T02:28:38.556Z,84.78
2018-05-23T02:29:47.420Z,84.97
2018-05-23T02:30:56.283Z,85.45
2018-05-23T02:32:05.152Z,85.64
2018-05-23T02:33:14.846Z,84.88
2018-05-23T02:34:23.711Z,84.49
2018-05-23T02:35:33.140Z,85.06
2018-05-23T02:36:42.283Z,84.78
2018-05-23T02:37:51.806Z,84.58
2018-05-23T02:39:00.785Z,84.78
2018-05-23T02:40:10.205Z,84.2
2018-05-23T02:41:19.346Z,84.58
2018-05-23T02:42:29.046Z,83.92
2018-05-23T02:43:38.013Z,83.05
2018-05-23T02:44:46.873Z,83.53
2018-05-23T02:45:56.024Z,83.44
2018-05-23T02:47:05.512Z,83.15
2018-05-23T02:48:14.767Z,83.82
2018-05-23T02:49:24.005Z,83.44
2018-05-23T02:50:32.870Z,83.34
2018-05-23T02:51:42.005Z,83.25
2018-05-23T02:52:50.866Z,82.96
2018-05-23T02:54:00.018Z,83.82
2018-05-23T02:55:09.711Z,82.86
2018-05-23T02:56:18.575Z,82.48
2018-05-23T02:57:27.715Z,82.96
2018-05-23T02:58:36.574Z,83.15
2018-05-23T02:59:45.716Z,82.86
2018-05-23T03:00:54.580Z,83.34
2018-05-23T03:02:04.009Z,82.86
2018-05-23T03:03:13.429Z,82.67
2018-05-23T03:04:22.576Z,82.67
2018-05-23T03:05:31.733Z,81.52
2018-05-23T03:06:41.103Z,82
2018-05-23T03:07:50.243Z,81.81
2018-05-23T03:08:59.105Z,81.43
2018-05-23T03:10:07.969Z,81.13
2018-05-23T03:11:16.834Z,82.29
2018-05-23T03:12:25.843Z,81.04
2018-05-23T03:13:34.702Z,80.85
2018-05-23T03:14:43.568Z,81.23
2018-05-23T03:15:52.425Z,81.81
2018-05-23T03:17:01.563Z,81.23
2018-05-23T03:18:10.624Z,81.33
2018-05-23T03:19:19.483Z,81.33
2018-05-23T03:20:28.623Z,82.48
2018-05-23T03:21:37.486Z,82.48
2018-05-23T03:22:46.343Z,82.67
2018-05-23T03:23:55.306Z,82.19
2018-05-23T03:25:04.449Z,82.86
2018-05-23T03:26:13.313Z,82.73
2018-05-23T03:27:22.178Z,82.96
2018-05-23T03:28:31.036Z,82.86
2018-05-23T03:29:39.998Z,83.34
2018-05-23T03:30:48.860Z,83.44
2018-05-23T03:31:58.014Z,83.39
2018-05-23T03:33:07.157Z,83.92
2018-05-23T03:34:16.019Z,84.01
2018-05-23T03:35:25.229Z,82.92
2018-05-23T03:36:34.091Z,83.2
2018-05-23T03:37:43.233Z,83.3
2018-05-23T03:38:52.104Z,83.01
2018-05-23T03:40:00.962Z,83.2
2018-05-23T03:41:09.823Z,83.3
2018-05-23T03:42:18.965Z,83.78
2018-05-23T03:43:28.385Z,83.78
2018-05-23T03:44:37.245Z,83.97
2018-05-23T03:45:46.105Z,84.83
2018-05-23T03:46:55.114Z,83.87
2018-05-23T03:48:04.540Z,84.35
2018-05-23T03:49:13.681Z,84.35
2018-05-23T03:50:22.544Z,83.68
2018-05-23T03:51:31.404Z,84.45
2018-05-23T03:52:40.415Z,83.49
2018-05-23T03:53:49.282Z,83.78
2018-05-23T03:54:58.706Z,84.16
2018-05-23T03:56:07.568Z,83.78
2018-05-23T03:57:16.709Z,83.97
2018-05-23T03:58:25.671Z,84.35
2018-05-23T03:59:34.531Z,83.97
2018-05-23T04:00:43.391Z,84.26
2018-05-23T04:01:52.250Z,84.35
2018-05-23T04:03:01.117Z,84.35
2018-05-23T04:04:10.129Z,84.35
2018-05-23T04:05:18.991Z,84.74
2018-05-23T04:06:27.854Z,84.35
2018-05-23T04:07:36.715Z,84.35
2018-05-23T04:08:45.582Z,84.83
2018-05-23T04:09:54.593Z,84.55
2018-05-23T04:11:03.747Z,84.06
2018-05-23T04:12:12.610Z,84.55
2018-05-23T04:13:21.473Z,84.26
2018-05-23T04:14:30.617Z,84.26
2018-05-23T04:15:40.162Z,84.26
2018-05-23T04:16:49.026Z,84.35
2018-05-23T04:17:57.888Z,84.26
2018-05-23T04:19:07.029Z,84.35
2018-05-23T04:20:15.890Z,84.45
2018-05-23T04:21:24.750Z,83.97
2018-05-23T04:22:33.613Z,84.45
2018-05-23T04:23:42.475Z,84.64
2018-05-23T04:24:51.367Z,84.45
2018-05-23T04:26:00.629Z,84.26
2018-05-23T04:27:09.639Z,84.16
2018-05-23T04:28:18.500Z,84.74
2018-05-23T04:29:27.363Z,84.92
2018-05-23T04:30:36.224Z,84.74
2018-05-23T04:31:45.366Z,84.26
2018-05-23T04:32:54.277Z,85.12
2018-05-23T04:34:03.141Z,84.74
2018-05-23T04:35:12.009Z,84.74
2018-05-23T04:36:20.879Z,84.45
2018-05-23T04:37:29.741Z,84.74
2018-05-23T04:38:38.944Z,84.06
2018-05-23T04:39:48.084Z,84.26
2018-05-23T04:40:56.951Z,84.45
2018-05-23T04:42:05.815Z,84.45
2018-05-23T04:43:14.952Z,84.26
2018-05-23T04:44:23.862Z,84.26
2018-05-23T04:45:32.723Z,84.64
2018-05-23T04:46:41.584Z,84.74
2018-05-23T04:47:50.447Z,84.06
2018-05-23T04:48:59.591Z,84.06
2018-05-23T04:50:09.355Z,83.78
2018-05-23T04:51:18.496Z,84.39
2018-05-23T04:52:27.636Z,84.45
2018-05-23T04:53:36.503Z,84.39
2018-05-23T04:54:45.645Z,84.2
2018-05-23T04:55:54.654Z,84.68
2018-05-23T04:57:03.517Z,84.49
2018-05-23T04:58:12.381Z,85.12
2018-05-23T04:59:21.240Z,84.06
2018-05-23T05:00:30.383Z,84.68
2018-05-23T05:01:39.583Z,83.92
2018-05-23T05:02:48.443Z,84.39
2018-05-23T05:03:57.305Z,84.35
2018-05-23T05:05:06.169Z,84.11
2018-05-23T05:06:15.031Z,84.39
2018-05-23T05:07:23.992Z,84.58
2018-05-23T05:08:32.852Z,84.68
2018-05-23T05:09:41.716Z,84.01
2018-05-23T05:10:51.149Z,83.05
2018-05-23T05:12:00.069Z,83.25
2018-05-23T05:13:08.871Z,83.63
2018-05-23T05:14:17.731Z,83.34
2018-05-23T05:15:26.594Z,83.25
2018-05-23T05:16:35.738Z,83.15
2018-05-23T05:17:44.606Z,83.34
2018-05-23T05:18:53.797Z,83.25
2018-05-23T05:20:02.657Z,83.44
2018-05-23T05:21:11.523Z,83.44
2018-05-23T05:22:20.385Z,83.44
2018-05-23T05:23:29.289Z,82.96
2018-05-23T05:24:38.582Z,82.48
2018-05-23T05:25:47.719Z,82.86
2018-05-23T05:26:56.859Z,83.15
2018-05-23T05:28:05.725Z,83.44
2018-05-23T05:29:14.591Z,83.72
2018-05-23T05:30:23.504Z,83.53
2018-05-23T05:31:32.366Z,83.25
2018-05-23T05:32:41.231Z,83.15
2018-05-23T05:33:50.096Z,83.53
2018-05-23T05:34:59.059Z,83.44
2018-05-23T05:36:08.072Z,83.05
2018-05-23T05:37:16.940Z,83.82
2018-05-23T05:38:25.808Z,83.25
2018-05-23T05:39:34.669Z,83.15
2018-05-23T05:40:43.528Z,82.67
2018-05-23T05:41:52.664Z,83.63
2018-05-23T05:43:01.530Z,83.34
2018-05-23T05:44:10.668Z,82.86
2018-05-23T05:45:19.809Z,82.81
2018-05-23T05:46:28.672Z,82.9
2018-05-23T05:47:37.885Z,82.9
2018-05-23T05:48:46.747Z,83.15
2018-05-23T05:49:55.638Z,83.05
2018-05-23T05:51:05.062Z,83.34
2018-05-23T05:52:13.952Z,83.19
2018-05-23T05:53:24.914Z,82.48
2018-05-23T05:54:35.102Z,82.76
2018-05-23T05:55:44.632Z,82.96
2018-05-23T05:56:54.167Z,82.52
2018-05-23T05:58:04.163Z,81.95
2018-05-23T05:59:14.130Z,82.04
2018-05-23T06:00:23.920Z,82.14
2018-05-23T06:01:33.560Z,81.66
2018-05-23T06:02:43.414Z,81.27
2018-05-23T06:03:52.635Z,81.08
2018-05-23T06:05:01.868Z,81.46
2018-05-23T06:06:11.324Z,81.27
2018-05-23T06:07:20.790Z,80.89
2018-05-23T06:08:30.559Z,81.46
2018-05-23T06:09:40.630Z,80.51
2018-05-23T06:10:49.828Z,80.32
2018-05-23T06:11:59.119Z,80.99
2018-05-23T06:13:08.487Z,80.41
2018-05-23T06:14:17.912Z,78.78
2018-05-23T06:15:27.824Z,79.16
2018-05-23T06:16:37.555Z,79.07
2018-05-23T06:17:46.768Z,78.88
2018-05-23T06:18:56.617Z,78.02
2018-05-23T06:20:06.020Z,79.11
2018-05-23T06:21:15.078Z,78.25
2018-05-23T06:22:24.663Z,78.53
2018-05-23T06:23:34.490Z,78.82
2018-05-23T06:24:43.354Z,79.26
2018-05-23T06:25:52.222Z,79.21
2018-05-23T06:27:01.083Z,78.72
2018-05-23T06:28:10.204Z,79.11
2018-05-23T06:29:19.369Z,79.01
2018-05-23T06:30:29.036Z,78.53
2018-05-23T06:31:38.068Z,78.63
2018-05-23T06:32:47.246Z,78.53
2018-05-23T06:33:56.439Z,78.92
2018-05-23T06:35:05.305Z,79.11
2018-05-23T06:36:14.168Z,78.92
2018-05-23T06:37:23.032Z,77.38
2018-05-23T06:38:31.893Z,77.76
2018-05-23T06:39:41.010Z,77.86
2018-05-23T06:40:49.877Z,77.95
2018-05-23T06:41:58.740Z,77.51
2018-05-23T06:43:07.606Z,77.9
2018-05-23T06:44:16.762Z,77.61
2018-05-23T06:45:25.976Z,76.84
2018-05-23T06:46:34.839Z,77.9
2018-05-23T06:47:43.705Z,76.84
2018-05-23T06:48:52.848Z,75.79
2018-05-23T06:50:01.743Z,75.89
2018-05-23T06:51:11.061Z,75.6
2018-05-23T06:52:19.926Z,75.98
2018-05-23T06:53:28.790Z,74.83
2018-05-23T06:54:37.653Z,74.58
2018-05-23T06:55:46.558Z,75.54
2018-05-23T06:56:55.940Z,75.54
2018-05-23T06:58:04.806Z,76.02
2018-05-23T06:59:13.668Z,76.12
2018-05-23T07:00:22.531Z,75.06
2018-05-23T07:01:31.399Z,75.06
2018-05-23T07:02:40.416Z,75.35
2018-05-23T07:03:49.279Z,74.19
2018-05-23T07:04:58.431Z,74.48
2018-05-23T07:06:07.291Z,75.15
2018-05-23T07:07:16.158Z,74.96
2018-05-23T07:08:25.452Z,74.29
2018-05-23T07:09:34.592Z,74.19
2018-05-23T07:10:43.454Z,74.62
2018-05-23T07:11:52.320Z,75
2018-05-23T07:13:01.186Z,75.1
2018-05-23T07:14:10.376Z,74.58
2018-05-23T07:15:19.240Z,74.52
2018-05-23T07:16:28.102Z,74.23
2018-05-23T07:17:37.597Z,74.43
2018-05-23T07:18:46.736Z,74.33
2018-05-23T07:19:55.601Z,74.62
2018-05-23T07:21:04.464Z,74.9
2018-05-23T07:22:13.328Z,74.04
2018-05-23T07:23:22.467Z,74.23
2018-05-23T07:24:31.335Z,73.56
2018-05-23T07:25:40.813Z,72.5
2018-05-23T07:26:49.681Z,72.92
2018-05-23T07:27:58.826Z,72.54
2018-05-23T07:29:07.693Z,71.96
2018-05-23T07:30:16.834Z,72.44
2018-05-23T07:31:26.385Z,73.02
2018-05-23T07:32:35.261Z,73.11
2018-05-23T07:33:44.120Z,73.5
2018-05-23T07:34:52.983Z,72.54
2018-05-23T07:36:01.847Z,71.87
2018-05-23T07:37:10.759Z,71.52
2018-05-23T07:38:19.713Z,70.46
2018-05-23T07:39:29.117Z,71.23
2018-05-23T07:40:38.258Z,70.94
2018-05-23T07:41:47.124Z,70.37
2018-05-23T07:42:56.630Z,70.56
2018-05-23T07:44:05.492Z,70.17
2018-05-23T07:45:14.356Z,69.44
2018-05-23T07:46:23.223Z,68.86
2018-05-23T07:47:32.088Z,69.53
2018-05-23T07:48:41.101Z,69.63
2018-05-23T07:49:49.964Z,68.76
2018-05-23T07:50:58.831Z,68.86
2018-05-23T07:52:07.696Z,69.15
2018-05-23T07:53:16.562Z,67.61
2018-05-23T07:54:25.572Z,67.83
2018-05-23T07:55:34.712Z,68.41
2018-05-23T07:56:43.704Z,68.51
2018-05-23T07:57:52.443Z,67.74
2018-05-23T07:59:01.307Z,68.22
2018-05-23T08:00:11.177Z,67.74
2018-05-23T08:01:20.321Z,68.13
2018-05-23T08:02:29.187Z,67.74
2018-05-23T08:03:38.327Z,67.93
2018-05-23T08:04:47.467Z,68.32
2018-05-23T08:05:56.629Z,68.22
2018-05-23T08:07:06.054Z,67.16
2018-05-23T08:08:14.914Z,67.16
2018-05-23T08:09:23.780Z,67.45
2018-05-23T08:10:32.641Z,67.1
2018-05-23T08:11:41.647Z,67
2018-05-23T08:12:51.064Z,66.91
2018-05-23T08:13:59.932Z,65.46
2018-05-23T08:15:08.799Z,64.73
2018-05-23T08:16:17.664Z,64.43
2018-05-23T08:17:26.983Z,64.82
2018-05-23T08:18:35.848Z,62.8
2018-05-23T08:19:44.713Z,63.18
2018-05-23T08:20:53.580Z,63.38
2018-05-23T08:22:02.447Z,63.85
2018-05-23T08:23:11.408Z,63.57
2018-05-23T08:24:20.877Z,63.38
2018-05-23T08:25:29.699Z,62.8
2018-05-23T08:26:38.562Z,62.06
2018-05-23T08:27:47.431Z,61.96
2018-05-23T08:28:56.448Z,61.96
2018-05-23T08:30:05.318Z,61.29
2018-05-23T08:31:15.022Z,63.21
2018-05-23T08:32:23.887Z,63.41
2018-05-23T08:33:33.040Z,64.18
2018-05-23T08:34:42.008Z,62.45
2018-05-23T08:35:50.879Z,60.8
2018-05-23T08:37:00.174Z,62.09
2018-05-23T08:38:09.314Z,62.18
2018-05-23T08:39:18.180Z,61.41
2018-05-23T08:40:27.196Z,61.51
2018-05-23T08:41:36.065Z,62.96
2018-05-23T08:42:44.928Z,63.34
2018-05-23T08:43:54.066Z,63.15
2018-05-23T08:45:03.210Z,62.48
2018-05-23T08:46:12.429Z,60.06
2018-05-23T08:47:21.296Z,59.39
2018-05-23T08:48:30.159Z,59.52
2018-05-23T08:49:39.022Z,61.06
2018-05-23T08:50:47.890Z,62.31
2018-05-23T08:51:56.857Z,62.86
2018-05-23T08:53:05.722Z,63.28
2018-05-23T08:54:15.424Z,63.28
2018-05-23T08:55:24.285Z,63.63
2018-05-23T08:56:33.151Z,64.11
2018-05-23T08:57:42.116Z,63.44
2018-05-23T08:58:50.980Z,64.31
2018-05-23T08:59:59.845Z,63.44
2018-05-23T09:01:08.713Z,64.69
2018-05-23T09:02:17.579Z,63.44
2018-05-23T09:03:26.500Z,63.85
2018-05-23T09:04:35.650Z,64.34
2018-05-23T09:05:45.103Z,63.47
2018-05-23T09:06:53.969Z,63.28
2018-05-23T09:08:02.842Z,62.15
2018-05-23T09:09:12.033Z,61.86
2018-05-23T09:10:20.899Z,61.83
2018-05-23T09:11:29.766Z,60.86
2018-05-23T09:12:38.854Z,59.93
2018-05-23T09:13:47.501Z,59.83
2018-05-23T09:14:56.418Z,60.03
2018-05-23T09:16:05.284Z,59.25
2018-05-23T09:17:14.152Z,58.42
2018-05-23T09:18:23.021Z,56.58
2018-05-23T09:19:32.163Z,56
2018-05-23T09:20:41.478Z,56.77
2018-05-23T09:21:50.623Z,56.77
2018-05-23T09:22:59.493Z,56.32
2018-05-23T09:24:08.363Z,56.41
2018-05-23T09:25:17.519Z,57.77
2018-05-23T09:26:26.575Z,58.06
2018-05-23T09:27:35.442Z,57.96
2018-05-23T09:28:44.308Z,56.32
2018-05-23T09:29:53.175Z,55.55
2018-05-23T09:31:02.041Z,55.55
2018-05-23T09:32:11.226Z,56.25
2018-05-23T09:33:20.789Z,57.19
2018-05-23T09:34:29.652Z,58.06
2018-05-23T09:35:38.517Z,58.15
2018-05-23T09:36:47.384Z,58.83
2018-05-23T09:37:56.300Z,58.54
2018-05-23T09:39:05.557Z,58.15
2018-05-23T09:40:15.399Z,57.67
2018-05-23T09:41:24.265Z,56.45
2018-05-23T09:42:33.133Z,56.83
2018-05-23T09:43:42.151Z,56.83
2018-05-23T09:44:51.020Z,56.63
2018-05-23T09:45:59.887Z,56.83
2018-05-23T09:47:09.030Z,55.67
2018-05-23T09:48:17.897Z,54.99
2018-05-23T09:49:26.916Z,55.38
2018-05-23T09:50:35.783Z,56.15
2018-05-23T09:51:44.648Z,55.38
2018-05-23T09:52:53.520Z,55.29
2018-05-23T09:54:02.665Z,53.96
2018-05-23T09:55:11.606Z,53.67
2018-05-23T09:56:20.448Z,53.67
2018-05-23T09:57:29.316Z,53.96
2018-05-23T09:58:38.185Z,54.22
2018-05-23T09:59:47.326Z,52.67
2018-05-23T10:00:56.292Z,53.86
2018-05-23T10:02:05.445Z,52.31
2018-05-23T10:03:14.582Z,52.8
2018-05-23T10:04:23.449Z,53.28
2018-05-23T10:05:32.316Z,52.8
2018-05-23T10:06:41.183Z,52.41
2018-05-23T10:07:50.049Z,52.99
2018-05-23T10:08:59.195Z,53.57
2018-05-23T10:10:08.060Z,52.34
2018-05-23T10:11:16.925Z,53.02
2018-05-23T10:12:25.943Z,52.89
2018-05-23T10:13:34.812Z,52.22
2018-05-23T10:14:43.682Z,53.02
2018-05-23T10:15:52.550Z,51.54
2018-05-23T10:17:01.418Z,51.93
2018-05-23T10:18:10.288Z,52.12
2018-05-23T10:19:19.150Z,51.73
2018-05-23T10:20:28.020Z,52.44
2018-05-23T10:21:36.889Z,52.34
2018-05-23T10:22:45.756Z,51.56
2018-05-23T10:23:54.919Z,53.11
2018-05-23T10:25:04.300Z,52.14
2018-05-23T10:26:13.169Z,51.66
2018-05-23T10:27:22.978Z,50.7
2018-05-23T10:28:31.843Z,50.21
2018-05-23T10:29:41.063Z,51.37
2018-05-23T10:30:49.929Z,51.08
2018-05-23T10:31:58.799Z,50.92
2018-05-23T10:33:07.669Z,50.33
2018-05-23T10:34:16.539Z,51.01
2018-05-23T10:35:25.455Z,50.24
2018-05-23T10:36:34.323Z,50.24
2018-05-23T10:37:43.474Z,49.65
2018-05-23T10:38:52.429Z,50.92
2018-05-23T10:40:01.213Z,50.24
2018-05-23T10:41:10.432Z,51.01
2018-05-23T10:42:19.307Z,49.75
2018-05-23T10:43:28.453Z,48.79
2018-05-23T10:44:37.326Z,48.49
2018-05-23T10:45:46.194Z,48.39
2018-05-23T10:46:55.489Z,48.3
2018-05-23T10:48:04.359Z,49.27
2018-05-23T10:49:13.225Z,49.95
2018-05-23T10:50:22.378Z,49.65
2018-05-23T10:51:31.808Z,48.2
2018-05-23T10:52:41.061Z,48.59
2018-05-23T10:53:49.930Z,48.2
2018-05-23T10:54:58.800Z,49.37
2018-05-23T10:56:07.669Z,49.19
2018-05-23T10:57:16.903Z,48.13
2018-05-23T10:58:26.035Z,47.74
2018-05-23T10:59:35.461Z,46.97
2018-05-23T11:00:44.609Z,47.06
2018-05-23T11:01:53.477Z,47.06
2018-05-23T11:03:02.380Z,47.84
2018-05-23T11:04:11.271Z,47.84
2018-05-23T11:05:20.143Z,47.94
2018-05-23T11:06:29.302Z,46.97
2018-05-23T11:07:38.171Z,47.06
2018-05-23T11:08:47.319Z,46.58
2018-05-23T11:09:57.046Z,47.36
2018-05-23T11:11:06.213Z,46.87
2018-05-23T11:12:15.080Z,46.67
2018-05-23T11:13:23.975Z,46.19
2018-05-23T11:14:32.816Z,46.48
2018-05-23T11:15:42.111Z,46
2018-05-23T11:16:50.979Z,45.71
2018-05-23T11:17:59.846Z,46.87
2018-05-23T11:19:09.000Z,46.97
2018-05-23T11:20:18.146Z,46.87
2018-05-23T11:21:27.119Z,46.97
2018-05-23T11:22:35.988Z,46.19
2018-05-23T11:23:44.854Z,46.19
2018-05-23T11:24:53.723Z,46.99
2018-05-23T11:26:02.867Z,46.19
2018-05-23T11:27:12.093Z,46.12
2018-05-23T11:28:20.959Z,46.6
2018-05-23T11:29:30.104Z,46.51
2018-05-23T11:30:38.973Z,45.92
2018-05-23T11:31:47.845Z,45.25
2018-05-23T11:32:56.768Z,46.02
2018-05-23T11:34:05.635Z,45.25
2018-05-23T11:35:14.504Z,45.73
2018-05-23T11:36:23.373Z,45.73
2018-05-23T11:37:32.244Z,46.51
2018-05-23T11:38:41.162Z,47.28
2018-05-23T11:39:50.670Z,45.65
2018-05-23T11:40:59.463Z,45.73
2018-05-23T11:42:08.332Z,45.34
2018-05-23T11:43:17.492Z,45.73
2018-05-23T11:44:26.990Z,46.12
2018-05-23T11:45:35.859Z,44.09
2018-05-23T11:46:44.880Z,44.67
2018-05-23T11:47:53.878Z,45.34
2018-05-23T11:49:03.029Z,45.17
2018-05-23T11:50:11.897Z,44.68
2018-05-23T11:51:20.768Z,44.4
2018-05-23T11:52:29.914Z,44.4
2018-05-23T11:53:38.785Z,44.2
2018-05-23T11:54:47.697Z,44.98
2018-05-23T11:55:56.528Z,44.4
2018-05-23T11:57:05.398Z,43.33
2018-05-23T11:58:14.271Z,43.33
2018-05-23T11:59:23.146Z,43.35
2018-05-23T12:00:32.346Z,43.74
2018-05-23T12:01:41.830Z,42.67
2018-05-23T12:02:51.313Z,42.48
2018-05-23T12:04:00.185Z,43.84
2018-05-23T12:05:09.054Z,43.82
2018-05-23T12:06:17.927Z,44.13
2018-05-23T12:07:26.852Z,43.84
2018-05-23T12:08:35.721Z,42.19
2018-05-23T12:09:44.592Z,43.35
2018-05-23T12:10:53.463Z,42.77
2018-05-23T12:12:02.412Z,43.93
2018-05-23T12:13:11.365Z,43.16
2018-05-23T12:14:20.232Z,42.48
2018-05-23T12:15:29.100Z,42.79
2018-05-23T12:16:37.974Z,42.5
2018-05-23T12:17:46.852Z,42.4
2018-05-23T12:18:56.052Z,42.52
2018-05-23T12:20:04.926Z,41.82
2018-05-23T12:21:14.078Z,42.13
2018-05-23T12:22:22.952Z,42.13
2018-05-23T12:23:31.827Z,41.84
2018-05-23T12:24:40.699Z,41.36
2018-05-23T12:25:49.572Z,40.39
2018-05-23T12:26:58.451Z,40.58
2018-05-23T12:28:07.607Z,40.58
2018-05-23T12:29:16.478Z,40.39
2018-05-23T12:30:25.703Z,40.19
2018-05-23T12:31:34.580Z,40.48
2018-05-23T12:32:44.010Z,40.41
2018-05-23T12:33:53.167Z,40.79
2018-05-23T12:35:02.042Z,39.62
2018-05-23T12:36:11.266Z,40.6
2018-05-23T12:37:20.145Z,41.49
2018-05-23T12:38:29.025Z,40.33
2018-05-23T12:39:38.176Z,40.52
2018-05-23T12:40:47.051Z,41.49
2018-05-23T12:41:56.276Z,40.42
2018-05-23T12:43:05.153Z,40.73
2018-05-23T12:44:14.029Z,39.28
2018-05-23T12:45:22.914Z,38.7
2018-05-23T12:46:31.790Z,36.75
2018-05-23T12:47:41.021Z,36.75
2018-05-23T12:48:50.179Z,36.93
2018-05-23T12:49:59.066Z,35.97
2018-05-23T12:51:08.228Z,37.34
2018-05-23T12:52:17.105Z,36.46
2018-05-23T12:53:26.291Z,36.26
2018-05-23T12:54:35.166Z,36.96
2018-05-23T12:55:44.044Z,36.38
2018-05-23T12:56:53.204Z,35.5
2018-05-23T12:58:02.082Z,35.02
2018-05-23T12:59:11.010Z,35.21
2018-05-23T13:00:19.888Z,35.99
2018-05-23T13:01:28.765Z,35.8
2018-05-23T13:02:37.918Z,35.5
2018-05-23T13:03:47.244Z,36.38
2018-05-23T13:04:56.222Z,36.47
2018-05-23T13:06:05.100Z,35.97
2018-05-23T13:07:13.982Z,36.07
2018-05-23T13:08:22.856Z,36.18
2018-05-23T13:09:31.736Z,35.41
2018-05-23T13:10:40.764Z,36.88
2018-05-23T13:11:49.642Z,36.87
2018-05-23T13:12:58.520Z,36.96
2018-05-23T13:14:07.396Z,36.2
2018-05-23T13:15:16.276Z,35.13
2018-05-23T13:16:25.203Z,34.35
2018-05-23T13:17:34.365Z,33.67
2018-05-23T13:18:43.245Z,33.48
2018-05-23T13:19:52.129Z,32.99
2018-05-23T13:21:01.285Z,32.89
2018-05-23T13:22:10.891Z,33.69
2018-05-23T13:23:19.769Z,32.91
2018-05-23T13:24:28.650Z,32.62
2018-05-23T13:25:37.534Z,32.03
2018-05-23T13:26:46.405Z,32.15
2018-05-23T13:27:56.396Z,32.92
2018-05-23T13:29:05.554Z,32.05
2018-05-23T13:30:14.432Z,32.05
2018-05-23T13:31:23.314Z,31.95
2018-05-23T13:32:32.192Z,32.34
2018-05-23T13:33:41.423Z,32.42
2018-05-23T13:34:50.303Z,31.93
2018-05-23T13:35:59.201Z,31.35
2018-05-23T13:37:08.363Z,31.84
2018-05-23T13:38:17.244Z,32.32
2018-05-23T13:39:26.333Z,31.54
2018-05-23T13:40:35.496Z,31.16
2018-05-23T13:41:44.374Z,30.49
2018-05-23T13:42:53.256Z,30.78
2018-05-23T13:44:02.139Z,30.58
2018-05-23T13:45:11.196Z,31.87
2018-05-23T13:46:20.165Z,30.11
2018-05-23T13:47:29.045Z,30.6
2018-05-23T13:48:37.921Z,30
2018-05-23T13:49:46.799Z,32.63
2018-05-23T13:50:55.680Z,31.56
2018-05-23T13:52:04.560Z,30.88
2018-05-23T13:53:13.439Z,30.9
2018-05-23T13:54:22.317Z,31.28
2018-05-23T13:55:31.272Z,30.03
2018-05-23T13:56:40.149Z,31.2
2018-05-23T13:57:49.352Z,30.62
2018-05-23T13:58:58.330Z,30.03
2018-05-23T14:00:07.489Z,29.82
2018-05-23T14:01:16.929Z,30.13
2018-05-23T14:02:26.343Z,30.13
2018-05-23T14:03:35.584Z,30.52
2018-05-23T14:04:44.592Z,29.53
2018-05-23T14:05:53.668Z,29.25
2018-05-23T14:07:02.653Z,29.95
2018-05-23T14:08:11.535Z,28.97
2018-05-23T14:09:20.695Z,28.88
2018-05-23T14:10:29.995Z,29.75
2018-05-23T14:11:39.034Z,29.17
2018-05-23T14:12:48.140Z,28.88
2018-05-23T14:13:57.069Z,29.17
2018-05-23T14:15:05.951Z,29.07
2018-05-23T14:16:15.117Z,29.35
2018-05-23T14:17:24.276Z,29.82
2018-05-23T14:18:33.156Z,29.82
2018-05-23T14:19:42.537Z,29.35
2018-05-23T14:20:51.418Z,29.56
2018-05-23T14:22:00.573Z,29.06
2018-05-23T14:23:09.456Z,28.97
2018-05-23T14:24:18.336Z,29.66
2018-05-23T14:25:28.018Z,29.18
2018-05-23T14:26:37.180Z,29.47
2018-05-23T14:27:46.336Z,30.08
2018-05-23T14:28:55.220Z,28.91
2018-05-23T14:30:04.383Z,29.1
2018-05-23T14:31:13.542Z,29.79
2018-05-23T14:32:22.421Z,29.2
2018-05-23T14:33:31.302Z,29.49
2018-05-23T14:34:40.183Z,29.3
2018-05-23T14:35:49.118Z,29.21
2018-05-23T14:36:57.948Z,30.97
2018-05-23T14:38:06.827Z,29.91
2018-05-23T14:39:15.982Z,30.08
2018-05-23T14:40:24.860Z,29.39
2018-05-23T14:41:33.740Z,29.88
2018-05-23T14:42:42.723Z,29.69
2018-05-23T14:43:51.614Z,29.11
2018-05-23T14:45:00.488Z,28.54
2018-05-23T14:46:09.366Z,28.34
2018-05-23T14:47:18.247Z,26.4
2018-05-23T14:48:27.278Z,27.28
2018-05-23T14:49:36.435Z,28.33
2018-05-23T14:50:45.314Z,27.84
2018-05-23T14:51:54.195Z,27.56